Time;durP1;ratioP1;P1;durP2;ratioP2;P2;SDS_P1;SDS_P2;PMS_P1;PMS_P2;Temp;Humidity;BMP_temperature;BMP_pressure;BME280_temperature;BME280_humidity;BME280_pressure;Samples;Min_cycle;Max_cycle;Signal;HPM_P1;HPM_P2
2023/05/23 00:01:32;;;;;;;11.32;7.32;;;;;;;;;;4981362;28;20077;-41
2023/05/23 00:03:57;;;;;;;7.15;6.07;;;;;;;;;;4985589;28;20025;-42
2023/05/23 00:06:23;;;;;;;10.75;6.40;;;;;;;;;;4981910;28;20053;-44
2023/05/23 00:08:49;;;;;;;10.07;6.10;;;;;;;;;;4984209;28;20029;-46
2023/05/23 00:11:15;;;;;;;8.52;5.80;;;;;;;;;;4982961;28;20047;-46
2023/05/23 00:13:40;;;;;;;6.68;5.60;;;;;;;;;;4982501;28;20495;-41
2023/05/23 00:16:08;;;;;;;6.25;5.20;;;;;;;;;;4984595;28;20046;-41
2023/05/23 00:18:34;;;;;;;8.00;5.28;;;;;;;;;;4985789;28;20029;-41
2023/05/23 00:21:01;;;;;;;6.05;5.40;;;;;;;;;;4983600;28;20046;-41
2023/05/23 00:23:28;;;;;;;6.45;4.88;;;;;;;;;;4986562;28;20037;-43
2023/05/23 00:25:54;;;;;;;5.43;4.70;;;;;;;;;;4987759;28;20062;-46
2023/05/23 00:28:20;;;;;;;6.60;5.10;;;;;;;;;;4987899;28;20022;-43
2023/05/23 00:30:47;;;;;;;5.47;4.40;;;;;;;;;;4983767;28;20035;-43
2023/05/23 00:33:14;;;;;;;5.45;4.63;;;;;;;;;;4988160;28;20026;-45
2023/05/23 00:35:42;;;;;;;5.00;4.50;;;;;;;;;;4985762;28;20054;-45
2023/05/23 00:38:08;;;;;;;8.18;4.80;;;;;;;;;;4985671;28;20030;-42
2023/05/23 00:40:34;;;;;;;4.63;4.22;;;;;;;;;;4987268;28;20038;-41
2023/05/23 00:43:00;;;;;;;8.27;5.28;;;;;;;;;;4985018;28;20037;-42
2023/05/23 00:45:26;;;;;;;5.45;4.65;;;;;;;;;;4983409;28;20030;-44
2023/05/23 00:47:53;;;;;;;6.25;4.85;;;;;;;;;;4986917;28;20523;-46
2023/05/23 00:50:19;;;;;;;5.50;5.00;;;;;;;;;;4987286;28;20030;-42
2023/05/23 00:52:46;;;;;;;5.15;4.75;;;;;;;;;;4984200;28;20122;-48
2023/05/23 00:55:13;;;;;;;5.35;4.85;;;;;;;;;;4989137;28;20106;-46
2023/05/23 00:57:39;;;;;;;5.35;4.85;;;;;;;;;;4987502;28;20035;-41
2023/05/23 01:00:07;;;;;;;5.07;4.68;;;;;;;;;;4985631;28;20054;-41
2023/05/23 01:02:35;;;;;;;4.90;4.50;;;;;;;;;;4983956;28;20038;-42
2023/05/23 01:05:01;;;;;;;5.32;4.53;;;;;;;;;;5016285;28;20117;-41
2023/05/23 01:07:26;;;;;;;5.32;4.82;;;;;;;;;;4987199;28;20555;-41
2023/05/23 01:09:52;;;;;;;5.50;5.00;;;;;;;;;;4986992;28;20027;-41
2023/05/23 01:12:36;;;;;;;5.55;5.05;;;;;;;;;;4982868;28;20039;-41
2023/05/23 01:15:11;;;;;;;5.18;4.78;;;;;;;;;;4986052;28;20034;-41
2023/05/23 01:17:54;;;;;;;5.28;4.88;;;;;;;;;;4985414;28;20045;-44
2023/05/23 01:20:33;;;;;;;7.35;5.13;;;;;;;;;;4981282;28;20096;-42
2023/05/23 01:23:01;;;;;;;6.85;4.50;;;;;;;;;;4985587;28;20058;-41
2023/05/23 01:25:57;;;;;;;6.50;5.15;;;;;;;;;;5016787;28;20034;-44
2023/05/23 01:28:27;;;;;;;5.80;4.90;;;;;;;;;;4983583;28;20034;-43
2023/05/23 01:30:57;;;;;;;5.57;5.18;;;;;;;;;;4984007;28;20038;-41
2023/05/23 01:33:24;;;;;;;7.30;4.97;;;;;;;;;;4984075;28;20029;-43
2023/05/23 01:35:49;;;;;;;11.43;5.07;;;;;;;;;;4981287;28;20043;-41
2023/05/23 01:38:15;;;;;;;6.10;4.95;;;;;;;;;;4985163;28;20038;-40
2023/05/23 01:40:40;;;;;;;5.72;5.22;;;;;;;;;;4987057;28;20162;-42
2023/05/23 01:43:06;;;;;;;10.05;5.53;;;;;;;;;;4980920;28;20035;-45
2023/05/23 01:45:33;;;;;;;6.15;5.65;;;;;;;;;;4983646;28;20498;-41
2023/05/23 01:47:59;;;;;;;8.00;5.47;;;;;;;;;;4986968;28;20022;-41
2023/05/23 01:50:25;;;;;;;6.18;5.38;;;;;;;;;;4987235;28;20022;-46
2023/05/23 01:52:52;;;;;;;5.93;5.28;;;;;;;;;;4983679;28;20050;-41
2023/05/23 01:55:25;;;;;;;6.07;5.47;;;;;;;;;;4983343;28;20022;-40
2023/05/23 01:57:52;;;;;;;7.60;5.93;;;;;;;;;;4982464;28;20050;-43
2023/05/23 02:00:18;;;;;;;6.53;5.50;;;;;;;;;;4984183;28;22531;-46
2023/05/23 02:02:43;;;;;;;7.20;6.38;;;;;;;;;;4986192;28;20117;-44
2023/05/23 02:05:09;;;;;;;6.68;5.38;;;;;;;;;;4985812;28;20113;-44
2023/05/23 02:07:35;;;;;;;7.95;5.50;;;;;;;;;;4983070;28;20070;-46
2023/05/23 02:10:02;;;;;;;9.25;5.75;;;;;;;;;;4980216;28;20064;-41
2023/05/23 02:12:27;;;;;;;8.35;5.25;;;;;;;;;;4984582;28;20398;-47
2023/05/23 02:14:54;;;;;;;6.75;4.80;;;;;;;;;;4984611;28;20097;-41
2023/05/23 02:17:20;;;;;;;9.02;5.20;;;;;;;;;;4982551;28;20038;-40
2023/05/23 02:19:46;;;;;;;8.45;5.45;;;;;;;;;;4985142;28;20033;-41
2023/05/23 02:22:12;;;;;;;6.28;5.65;;;;;;;;;;4984549;28;20770;-41
2023/05/23 02:24:38;;;;;;;8.13;5.57;;;;;;;;;;4984172;28;20058;-41
2023/05/23 02:27:03;;;;;;;6.85;6.18;;;;;;;;;;4982071;28;20097;-41
2023/05/23 02:29:29;;;;;;;5.70;5.20;;;;;;;;;;4984505;28;20026;-41
2023/05/23 02:31:54;;;;;;;7.53;4.88;;;;;;;;;;4983812;28;20093;-46
2023/05/23 02:34:19;;;;;;;8.32;5.63;;;;;;;;;;4984274;28;20026;-42
2023/05/23 02:36:45;;;;;;;6.32;5.30;;;;;;;;;;5017329;28;20045;-41
2023/05/23 02:39:10;;;;;;;6.38;5.20;;;;;;;;;;4982939;28;20501;-40
2023/05/23 02:41:36;;;;;;;6.85;5.00;;;;;;;;;;4984777;28;20065;-42
2023/05/23 02:44:01;;;;;;;6.82;5.45;;;;;;;;;;4980271;28;20042;-42
2023/05/23 02:46:27;;;;;;;8.00;5.03;;;;;;;;;;4982043;28;20041;-44
2023/05/23 02:48:52;;;;;;;5.25;4.75;;;;;;;;;;4982367;28;20491;-42
2023/05/23 02:51:17;;;;;;;6.85;5.22;;;;;;;;;;4985830;28;20045;-41
2023/05/23 02:53:43;;;;;;;8.48;5.35;;;;;;;;;;4982201;28;20038;-42
2023/05/23 02:56:08;;;;;;;5.82;5.22;;;;;;;;;;4983396;28;20030;-40
2023/05/23 02:58:34;;;;;;;6.88;5.32;;;;;;;;;;4982811;28;20496;-40
2023/05/23 03:01:03;;;;;;;8.30;5.40;;;;;;;;;;4984657;28;20109;-41
2023/05/23 03:03:30;;;;;;;6.30;5.25;;;;;;;;;;4982547;28;20074;-41
2023/05/23 03:05:58;;;;;;;8.02;5.15;;;;;;;;;;4983577;28;20046;-41
2023/05/23 03:08:24;;;;;;;7.10;5.40;;;;;;;;;;4984363;28;20054;-41
2023/05/23 03:10:49;;;;;;;10.73;5.95;;;;;;;;;;4984559;28;20444;-42
2023/05/23 03:13:15;;;;;;;8.15;5.20;;;;;;;;;;4985005;28;20101;-41
2023/05/23 03:15:41;;;;;;;7.38;5.20;;;;;;;;;;4984215;28;20454;-44
2023/05/23 03:18:06;;;;;;;5.90;5.40;;;;;;;;;;4979327;28;20032;-41
2023/05/23 03:20:32;;;;;;;6.05;5.18;;;;;;;;;;4983735;28;20034;-40
2023/05/23 03:22:57;;;;;;;5.68;5.20;;;;;;;;;;4981821;28;20026;-44
2023/05/23 03:25:23;;;;;;;7.22;5.00;;;;;;;;;;4983044;28;20352;-41
2023/05/23 03:27:48;;;;;;;7.88;4.80;;;;;;;;;;4984220;28;20018;-43
2023/05/23 03:30:13;;;;;;;5.38;4.38;;;;;;;;;;4983968;28;20093;-40
2023/05/23 03:32:39;;;;;;;6.18;4.47;;;;;;;;;;4981817;28;20030;-40
2023/05/23 03:35:05;;;;;;;4.97;4.60;;;;;;;;;;4983767;28;20113;-41
2023/05/23 03:37:30;;;;;;;5.22;4.80;;;;;;;;;;4983611;28;20065;-40
2023/05/23 03:39:55;;;;;;;6.80;5.30;;;;;;;;;;4982751;28;20065;-41
2023/05/23 03:42:21;;;;;;;5.07;4.55;;;;;;;;;;4979554;28;20043;-40
2023/05/23 03:44:46;;;;;;;5.40;4.90;;;;;;;;;;4984014;28;20030;-41
2023/05/23 03:47:11;;;;;;;6.82;4.50;;;;;;;;;;4983563;28;20523;-40
2023/05/23 03:49:37;;;;;;;5.63;5.07;;;;;;;;;;4983265;28;20026;-40
2023/05/23 03:52:03;;;;;;;6.65;5.10;;;;;;;;;;4982243;28;20470;-41
2023/05/23 03:54:28;;;;;;;6.72;5.05;;;;;;;;;;4984407;28;20034;-42
2023/05/23 03:56:53;;;;;;;6.82;4.53;;;;;;;;;;4983990;28;20066;-44
2023/05/23 03:59:19;;;;;;;5.78;4.90;;;;;;;;;;4981954;28;20380;-43
2023/05/23 04:01:44;;;;;;;8.48;5.05;;;;;;;;;;4984148;28;20043;-46
2023/05/23 04:04:10;;;;;;;6.88;4.68;;;;;;;;;;4985549;28;20034;-44
2023/05/23 04:06:35;;;;;;;5.35;4.85;;;;;;;;;;4983637;28;20047;-41
2023/05/23 04:09:02;;;;;;;4.60;4.20;;;;;;;;;;4983195;28;20031;-40
2023/05/23 04:11:27;;;;;;;4.70;4.30;;;;;;;;;;4983896;28;20821;-41
2023/05/23 04:13:53;;;;;;;6.50;4.60;;;;;;;;;;4979665;28;20023;-48
2023/05/23 04:16:18;;;;;;;5.68;4.18;;;;;;;;;;4982957;28;20041;-41
2023/05/23 04:18:45;;;;;;;6.25;4.70;;;;;;;;;;4981271;28;20029;-40
2023/05/23 04:21:11;;;;;;;5.63;4.57;;;;;;;;;;4979473;28;20058;-41
2023/05/23 04:23:37;;;;;;;4.82;4.40;;;;;;;;;;4983402;28;20026;-40
2023/05/23 04:26:04;;;;;;;7.20;4.53;;;;;;;;;;4981866;28;20065;-40
2023/05/23 04:28:30;;;;;;;6.63;4.30;;;;;;;;;;4981642;28;20031;-41
2023/05/23 04:30:55;;;;;;;4.70;4.40;;;;;;;;;;4983416;28;20566;-42
2023/05/23 04:33:21;;;;;;;6.13;4.38;;;;;;;;;;4982310;28;20232;-41
2023/05/23 04:35:46;;;;;;;8.27;4.18;;;;;;;;;;4980319;28;20403;-43
2023/05/23 04:38:12;;;;;;;7.70;5.00;;;;;;;;;;4982985;28;20030;-42
2023/05/23 04:40:37;;;;;;;7.18;4.38;;;;;;;;;;4978936;28;20042;-43
2023/05/23 04:43:03;;;;;;;4.75;4.35;;;;;;;;;;4984697;28;20089;-40
2023/05/23 04:45:28;;;;;;;4.55;4.18;;;;;;;;;;4981826;28;20496;-45
2023/05/23 04:47:54;;;;;;;5.50;4.50;;;;;;;;;;4982326;28;20042;-41
2023/05/23 04:50:21;;;;;;;4.38;4.07;;;;;;;;;;4983429;28;20030;-41
2023/05/23 04:52:47;;;;;;;4.75;4.32;;;;;;;;;;4981707;28;20092;-41
2023/05/23 04:55:13;;;;;;;5.85;4.50;;;;;;;;;;4984771;28;20471;-40
2023/05/23 04:57:38;;;;;;;5.97;4.28;;;;;;;;;;4983608;28;20046;-40
2023/05/23 05:00:11;;;;;;;7.43;4.47;;;;;;;;;;4982423;28;20022;-41
2023/05/23 05:02:38;;;;;;;6.68;4.32;;;;;;;;;;4981987;28;21493;-41
2023/05/23 05:05:04;;;;;;;8.43;4.63;;;;;;;;;;4987339;28;20064;-40
2023/05/23 05:07:30;;;;;;;5.10;4.60;;;;;;;;;;4985645;28;20042;-42
2023/05/23 05:09:55;;;;;;;6.97;4.32;;;;;;;;;;4987117;28;20026;-40
2023/05/23 05:12:20;;;;;;;5.05;4.47;;;;;;;;;;4980334;28;20043;-40
2023/05/23 05:14:46;;;;;;;7.70;4.50;;;;;;;;;;4986968;28;20030;-41
2023/05/23 05:17:11;;;;;;;5.25;4.40;;;;;;;;;;4980913;28;20522;-42
2023/05/23 05:19:37;;;;;;;7.30;4.85;;;;;;;;;;4984408;28;20035;-42
2023/05/23 05:22:02;;;;;;;6.60;4.40;;;;;;;;;;4987575;28;20042;-41
2023/05/23 05:24:28;;;;;;;6.00;4.00;;;;;;;;;;4982370;28;20756;-41
2023/05/23 05:26:54;;;;;;;4.90;4.38;;;;;;;;;;4978397;28;20487;-43
2023/05/23 05:29:19;;;;;;;4.18;3.83;;;;;;;;;;4983306;28;20037;-46
2023/05/23 05:31:45;;;;;;;4.97;4.28;;;;;;;;;;4981567;28;20054;-41
2023/05/23 05:34:11;;;;;;;4.75;4.28;;;;;;;;;;4983009;28;20030;-44
2023/05/23 05:36:37;;;;;;;6.20;4.45;;;;;;;;;;4980543;28;20133;-41
2023/05/23 05:39:03;;;;;;;7.28;6.63;;;;;;;;;;4981622;28;20038;-41
2023/05/23 05:41:28;;;;;;;4.13;3.80;;;;;;;;;;4979227;28;20635;-41
2023/05/23 05:43:54;;;;;;;6.00;3.80;;;;;;;;;;4981729;28;20763;-41
2023/05/23 05:46:19;;;;;;;5.43;3.83;;;;;;;;;;4980140;28;20042;-42
2023/05/23 05:48:45;;;;;;;4.38;3.97;;;;;;;;;;4984411;28;20042;-43
2023/05/23 05:51:10;;;;;;;4.85;4.32;;;;;;;;;;4981746;28;20426;-41
2023/05/23 05:53:36;;;;;;;5.15;4.65;;;;;;;;;;4983094;28;20382;-40
2023/05/23 05:56:02;;;;;;;5.07;4.57;;;;;;;;;;4985202;28;20158;-40
2023/05/23 05:58:27;;;;;;;5.18;3.97;;;;;;;;;;4984860;28;20049;-43
2023/05/23 06:00:54;;;;;;;7.65;4.53;;;;;;;;;;4981086;28;20049;-40
2023/05/23 06:03:19;;;;;;;8.90;5.00;;;;;;;;;;4976426;28;20045;-45
2023/05/23 06:05:44;;;;;;;4.30;3.97;;;;;;;;;;4979602;28;20501;-40
2023/05/23 06:08:10;;;;;;;4.65;4.18;;;;;;;;;;4983617;28;20041;-43
2023/05/23 06:10:38;;;;;;;6.32;3.67;;;;;;;;;;4978464;28;20469;-40
2023/05/23 06:13:03;;;;;;;6.00;3.60;;;;;;;;;;4978071;28;20034;-43
2023/05/23 06:15:29;;;;;;;5.63;3.72;;;;;;;;;;4980723;28;20488;-41
2023/05/23 06:17:54;;;;;;;4.07;3.78;;;;;;;;;;4980211;28;20390;-41
2023/05/23 06:20:20;;;;;;;8.05;3.53;;;;;;;;;;4983003;28;20482;-43
2023/05/23 06:22:45;;;;;;;7.72;3.72;;;;;;;;;;4980359;28;20027;-41
2023/05/23 06:25:11;;;;;;;4.00;3.58;;;;;;;;;;4980747;28;20035;-41
2023/05/23 06:27:36;;;;;;;8.38;4.63;;;;;;;;;;4980369;28;20065;-40
2023/05/23 06:30:03;;;;;;;9.32;4.78;;;;;;;;;;4981047;28;20033;-41
2023/05/23 06:32:29;;;;;;;5.28;4.43;;;;;;;;;;4984191;28;20038;-40
2023/05/23 06:34:54;;;;;;;11.00;4.70;;;;;;;;;;4985475;28;20364;-41
2023/05/23 06:37:19;;;;;;;14.50;6.60;;;;;;;;;;4985067;28;20042;-41
2023/05/23 06:39:45;;;;;;;13.02;6.43;;;;;;;;;;4982322;28;20036;-48
2023/05/23 06:42:10;;;;;;;14.48;6.13;;;;;;;;;;4984093;28;20053;-44
2023/05/23 06:44:36;;;;;;;6.70;5.07;;;;;;;;;;4985659;28;20037;-45
2023/05/23 06:47:01;;;;;;;12.73;7.72;;;;;;;;;;4983941;28;20034;-42
2023/05/23 06:49:26;;;;;;;10.82;7.70;;;;;;;;;;4985568;28;20034;-41
2023/05/23 06:51:52;;;;;;;14.68;8.68;;;;;;;;;;4982774;28;20030;-43
2023/05/23 06:54:18;;;;;;;12.98;8.75;;;;;;;;;;4984918;28;20080;-41
2023/05/23 06:56:43;;;;;;;21.00;7.97;;;;;;;;;;4986007;28;20046;-40
2023/05/23 06:59:09;;;;;;;14.45;8.50;;;;;;;;;;4983308;28;20092;-44
2023/05/23 07:01:34;;;;;;;10.85;8.65;;;;;;;;;;4982041;28;20046;-43
2023/05/23 07:04:00;;;;;;;14.40;9.30;;;;;;;;;;4985998;28;20509;-41
2023/05/23 07:06:28;;;;;;;9.15;7.60;;;;;;;;;;4984898;28;20050;-41
2023/05/23 07:08:54;;;;;;;11.00;7.85;;;;;;;;;;4982225;28;20041;-41
2023/05/23 07:11:20;;;;;;;15.25;7.82;;;;;;;;;;4984806;28;20035;-41
2023/05/23 07:13:46;;;;;;;14.50;7.82;;;;;;;;;;4980899;28;20050;-46
2023/05/23 07:16:11;;;;;;;13.48;7.82;;;;;;;;;;4984999;28;20491;-43
2023/05/23 07:18:37;;;;;;;8.98;7.28;;;;;;;;;;4983218;28;20034;-41
2023/05/23 07:21:02;;;;;;;9.68;7.57;;;;;;;;;;4983224;28;20062;-43
2023/05/23 07:23:32;;;;;;;16.63;8.38;;;;;;;;;;4984671;28;20034;-41
2023/05/23 07:25:57;;;;;;;13.20;7.35;;;;;;;;;;4984511;28;20038;-42
2023/05/23 07:28:23;;;;;;;11.98;8.02;;;;;;;;;;5011018;28;20034;-47
2023/05/23 07:30:48;;;;;;;15.93;8.00;;;;;;;;;;4980562;28;20074;-40
2023/05/23 07:33:14;;;;;;;14.00;7.88;;;;;;;;;;4982455;28;20031;-41
2023/05/23 07:35:40;;;;;;;13.98;8.77;;;;;;;;;;4984836;28;20042;-41
2023/05/23 07:38:06;;;;;;;9.45;8.35;;;;;;;;;;4981637;28;20384;-41
2023/05/23 07:40:31;;;;;;;13.20;8.60;;;;;;;;;;4984967;28;20037;-42
2023/05/23 07:42:57;;;;;;;11.52;7.80;;;;;;;;;;4981596;28;20109;-41
2023/05/23 07:45:22;;;;;;;15.93;7.82;;;;;;;;;;4983710;28;20518;-41
2023/05/23 07:47:48;;;;;;;11.90;8.40;;;;;;;;;;4982544;28;20026;-44
2023/05/23 07:50:13;;;;;;;9.10;7.65;;;;;;;;;;4982632;28;20083;-42
2023/05/23 07:52:40;;;;;;;10.38;7.82;;;;;;;;;;4983803;28;20046;-41
2023/05/23 07:55:06;;;;;;;10.93;8.57;;;;;;;;;;4983763;28;20026;-40
2023/05/23 07:57:31;;;;;;;12.95;7.70;;;;;;;;;;5012107;28;20521;-42
2023/05/23 07:59:56;;;;;;;20.30;7.47;;;;;;;;;;4985969;28;20038;-41
2023/05/23 08:02:22;;;;;;;7.47;6.65;;;;;;;;;;4985314;28;20121;-43
2023/05/23 08:04:48;;;;;;;15.68;6.93;;;;;;;;;;4981170;28;20037;-47
2023/05/23 08:07:14;;;;;;;16.45;7.47;;;;;;;;;;4982016;28;20038;-45
2023/05/23 08:09:40;;;;;;;11.52;7.22;;;;;;;;;;4986132;28;20401;-42
2023/05/23 08:12:06;;;;;;;10.15;6.53;;;;;;;;;;4980782;28;20042;-41
2023/05/23 08:14:32;;;;;;;7.03;6.30;;;;;;;;;;4983687;28;20034;-43
2023/05/23 08:16:57;;;;;;;11.05;6.57;;;;;;;;;;4980119;28;20034;-43
2023/05/23 08:19:22;;;;;;;8.27;6.00;;;;;;;;;;4982217;28;20065;-44
2023/05/23 08:21:48;;;;;;;6.20;5.60;;;;;;;;;;4984456;28;20050;-41
2023/05/23 08:24:13;;;;;;;8.48;4.68;;;;;;;;;;4982964;28;20488;-44
2023/05/23 08:26:40;;;;;;;5.82;5.28;;;;;;;;;;4978428;28;20415;-41
2023/05/23 08:29:08;;;;;;;5.72;4.75;;;;;;;;;;4981911;28;20030;-47
2023/05/23 08:31:33;;;;;;;7.38;4.78;;;;;;;;;;4983445;28;20399;-42
2023/05/23 08:33:59;;;;;;;8.70;5.82;;;;;;;;;;4984498;28;20114;-41
2023/05/23 08:36:24;;;;;;;14.10;6.95;;;;;;;;;;4981305;28;20039;-45
2023/05/23 08:38:51;;;;;;;9.00;6.65;;;;;;;;;;4988328;28;20019;-44
2023/05/23 08:41:21;;;;;;;14.15;7.07;;;;;;;;;;4986450;28;20514;-47
2023/05/23 08:43:47;;;;;;;7.32;6.63;;;;;;;;;;4984581;28;20518;-41
2023/05/23 08:46:13;;;;;;;11.00;6.30;;;;;;;;;;4988439;28;20042;-46
2023/05/23 08:48:39;;;;;;;9.13;6.57;;;;;;;;;;4986894;28;20574;-42
2023/05/23 08:51:05;;;;;;;8.35;6.35;;;;;;;;;;4988505;28;20045;-41
2023/05/23 08:53:32;;;;;;;13.18;6.05;;;;;;;;;;4983137;28;20037;-41
2023/05/23 08:56:01;;;;;;;9.98;5.95;;;;;;;;;;4988927;28;20049;-44
2023/05/23 08:58:30;;;;;;;7.90;6.10;;;;;;;;;;4986672;28;20443;-41
2023/05/23 09:00:58;;;;;;;7.38;6.07;;;;;;;;;;4984432;28;20125;-41
2023/05/23 09:03:25;;;;;;;12.32;6.07;;;;;;;;;;4990634;28;20030;-40
2023/05/23 09:05:52;;;;;;;9.02;5.78;;;;;;;;;;4985711;28;20129;-42
2023/05/23 09:08:18;;;;;;;9.95;6.45;;;;;;;;;;4989062;28;20029;-42
2023/05/23 09:10:44;;;;;;;8.57;7.13;;;;;;;;;;4984759;28;20591;-41
2023/05/23 09:13:10;;;;;;;8.20;6.40;;;;;;;;;;4984970;28;20034;-42
2023/05/23 09:15:35;;;;;;;11.00;7.35;;;;;;;;;;4981285;28;20066;-45
2023/05/23 09:18:00;;;;;;;10.00;6.30;;;;;;;;;;4986680;28;20030;-44
2023/05/23 09:20:27;;;;;;;14.95;6.35;;;;;;;;;;4987193;28;20088;-45
2023/05/23 09:22:54;;;;;;;12.18;6.07;;;;;;;;;;4984704;28;20113;-42
2023/05/23 09:25:19;;;;;;;18.38;6.10;;;;;;;;;;4980874;28;20057;-44
2023/05/23 09:27:45;;;;;;;6.22;4.90;;;;;;;;;;4987366;28;20058;-46
2023/05/23 09:30:12;;;;;;;8.63;5.78;;;;;;;;;;4986603;28;20407;-43
2023/05/23 09:32:38;;;;;;;14.90;5.88;;;;;;;;;;4986451;28;20051;-44
2023/05/23 09:35:05;;;;;;;7.32;5.70;;;;;;;;;;4984296;28;20038;-41
2023/05/23 09:37:32;;;;;;;9.90;6.07;;;;;;;;;;4987116;28;20038;-41
2023/05/23 09:39:59;;;;;;;9.07;6.13;;;;;;;;;;4985863;28;20483;-45
2023/05/23 09:42:24;;;;;;;11.82;5.50;;;;;;;;;;4980344;28;20484;-41
2023/05/23 09:44:50;;;;;;;9.27;5.47;;;;;;;;;;4985470;28;20033;-42
2023/05/23 09:47:16;;;;;;;8.07;5.55;;;;;;;;;;4985719;28;20105;-42
2023/05/23 09:49:45;;;;;;;6.70;5.53;;;;;;;;;;4986050;28;20479;-41
2023/05/23 09:52:12;;;;;;;12.60;5.70;;;;;;;;;;4985841;28;20049;-40
2023/05/23 09:54:37;;;;;;;13.07;5.47;;;;;;;;;;4984571;28;20462;-42
2023/05/23 09:57:08;;;;;;;6.45;5.80;;;;;;;;;;4981725;28;20042;-41
2023/05/23 09:59:36;;;;;;;6.90;5.18;;;;;;;;;;4985821;28;20109;-42
2023/05/23 10:02:05;;;;;;;6.65;5.43;;;;;;;;;;4986259;28;20046;-43
2023/05/23 10:04:33;;;;;;;5.95;5.20;;;;;;;;;;4987517;28;20038;-43
2023/05/23 10:07:22;;;;;;;6.60;5.55;;;;;;;;;;4982646;28;20035;-48
2023/05/23 10:09:59;;;;;;;4.68;4.28;;;;;;;;;;5016622;28;20463;-42
2023/05/23 10:12:48;;;;;;;8.52;4.53;;;;;;;;;;4984468;28;20126;-41
2023/05/23 10:15:16;;;;;;;5.03;4.55;;;;;;;;;;4987154;28;20062;-45
2023/05/23 10:18:20;;;;;;;4.78;4.32;;;;;;;;;;4983859;28;20054;-42
2023/05/23 10:20:48;;;;;;;10.32;4.63;;;;;;;;;;4985621;28;20133;-42
2023/05/23 10:23:14;;;;;;;5.68;4.22;;;;;;;;;;4986242;28;20038;-44
2023/05/23 10:25:42;;;;;;;5.10;4.55;;;;;;;;;;4981970;28;20049;-41
2023/05/23 10:28:08;;;;;;;8.10;4.78;;;;;;;;;;4984339;28;20161;-43
2023/05/23 10:30:34;;;;;;;5.10;4.32;;;;;;;;;;4976798;28;20113;-41
2023/05/23 10:33:00;;;;;;;5.93;4.60;;;;;;;;;;4983223;28;20440;-43
2023/05/23 10:35:38;;;;;;;6.35;4.57;;;;;;;;;;4986930;28;20161;-44
2023/05/23 10:38:07;;;;;;;4.60;4.18;;;;;;;;;;4981274;28;20038;-45
2023/05/23 10:40:33;;;;;;;6.78;3.92;;;;;;;;;;4982154;28;20042;-44
2023/05/23 10:43:23;;;;;;;7.20;4.10;;;;;;;;;;4983738;28;20546;-43
2023/05/23 10:45:50;;;;;;;4.78;4.32;;;;;;;;;;4983671;28;20626;-48
2023/05/23 10:48:28;;;;;;;10.15;4.70;;;;;;;;;;4975692;28;20497;-47
2023/05/23 10:51:37;;;;;;;5.63;5.13;;;;;;;;;;4981863;28;20045;-43
2023/05/23 10:54:09;;;;;;;6.00;4.93;;;;;;;;;;4948530;28;20046;-47
2023/05/23 10:56:35;;;;;;;5.70;5.20;;;;;;;;;;4953644;28;20043;-42
2023/05/23 10:59:05;;;;;;;8.80;4.90;;;;;;;;;;4950343;28;20035;-44
2023/05/23 11:01:30;;;;;;;9.95;4.68;;;;;;;;;;4951641;28;20587;-44
2023/05/23 11:03:56;;;;;;;5.30;4.80;;;;;;;;;;4952029;28;20086;-45
2023/05/23 11:06:34;;;;;;;17.13;4.68;;;;;;;;;;4954083;28;20125;-42
2023/05/23 11:09:12;;;;;;;6.93;4.97;;;;;;;;;;4952811;28;20090;-41
2023/05/23 11:12:01;;;;;;;5.68;4.90;;;;;;;;;;4951703;28;20046;-41
2023/05/23 11:14:50;;;;;;;10.85;5.15;;;;;;;;;;4955695;28;20031;-44
2023/05/23 11:17:16;;;;;;;6.68;5.18;;;;;;;;;;4937340;28;20049;-41
2023/05/23 11:20:08;;;;;;;11.73;5.43;;;;;;;;;;4954528;28;20039;-41
2023/05/23 11:22:35;;;;;;;11.70;4.88;;;;;;;;;;4952383;28;20121;-41
2023/05/23 11:25:06;;;;;;;7.47;5.60;;;;;;;;;;4951767;28;20057;-48
2023/05/23 11:27:33;;;;;;;7.57;5.40;;;;;;;;;;4950486;28;20101;-44
2023/05/23 11:29:59;;;;;;;7.63;4.47;;;;;;;;;;4973126;28;20034;-43
2023/05/23 11:32:28;;;;;;;6.97;5.05;;;;;;;;;;4985531;28;20046;-41
2023/05/23 11:34:53;;;;;;;7.30;5.00;;;;;;;;;;4983275;28;20027;-43
2023/05/23 11:37:19;;;;;;;5.43;4.93;;;;;;;;;;4985046;28;20041;-41
2023/05/23 11:39:44;;;;;;;5.60;5.07;;;;;;;;;;4984411;28;20416;-42
2023/05/23 11:42:10;;;;;;;6.00;4.85;;;;;;;;;;4984003;28;20043;-41
2023/05/23 11:44:35;;;;;;;8.35;5.13;;;;;;;;;;4982687;28;20037;-42
2023/05/23 11:47:02;;;;;;;12.63;4.70;;;;;;;;;;4984187;28;20042;-44
2023/05/23 11:49:29;;;;;;;4.97;4.57;;;;;;;;;;4982212;28;20487;-42
2023/05/23 11:51:55;;;;;;;7.32;4.90;;;;;;;;;;4981170;28;20491;-41
2023/05/23 11:54:27;;;;;;;6.53;5.00;;;;;;;;;;4983577;28;20026;-41
2023/05/23 11:56:54;;;;;;;5.75;5.07;;;;;;;;;;4981742;28;20054;-41
2023/05/23 11:59:25;;;;;;;12.05;5.85;;;;;;;;;;4982436;28;20438;-42
2023/05/23 12:01:53;;;;;;;10.65;5.60;;;;;;;;;;4981355;28;20048;-48
2023/05/23 12:04:19;;;;;;;7.55;5.90;;;;;;;;;;4983151;28;20077;-48
2023/05/23 12:06:48;;;;;;;9.48;5.75;;;;;;;;;;4983544;28;20054;-41
2023/05/23 12:09:14;;;;;;;11.98;6.03;;;;;;;;;;4981061;28;20495;-41
2023/05/23 12:11:41;;;;;;;8.15;5.57;;;;;;;;;;4984297;28;20034;-42
2023/05/23 12:14:08;;;;;;;6.82;6.05;;;;;;;;;;4987836;28;20561;-43
2023/05/23 12:16:34;;;;;;;16.48;5.63;;;;;;;;;;4983512;28;20050;-47
2023/05/23 12:19:01;;;;;;;6.05;5.45;;;;;;;;;;4989363;28;20072;-44
2023/05/23 12:21:40;;;;;;;12.30;6.72;;;;;;;;;;4985229;28;20049;-41
2023/05/23 12:24:18;;;;;;;5.97;5.38;;;;;;;;;;4985104;28;20034;-41
2023/05/23 12:26:52;;;;;;;8.38;5.85;;;;;;;;;;5014536;28;20184;-41
2023/05/23 12:29:19;;;;;;;8.20;5.70;;;;;;;;;;4985894;28;20039;-41
2023/05/23 12:31:49;;;;;;;7.75;6.22;;;;;;;;;;4985766;28;20038;-43
2023/05/23 12:34:14;;;;;;;7.68;6.43;;;;;;;;;;4989501;28;20027;-47
2023/05/23 12:36:41;;;;;;;14.32;7.00;;;;;;;;;;4984554;28;20387;-41
2023/05/23 12:39:08;;;;;;;10.23;7.22;;;;;;;;;;4986329;28;20030;-41
2023/05/23 12:41:33;;;;;;;12.85;6.75;;;;;;;;;;4986989;28;20043;-41
2023/05/23 12:43:59;;;;;;;10.50;7.00;;;;;;;;;;4984120;28;20068;-43
2023/05/23 12:46:26;;;;;;;8.02;6.75;;;;;;;;;;4984092;28;20038;-43
2023/05/23 12:48:52;;;;;;;7.68;6.82;;;;;;;;;;4985837;28;20032;-45
2023/05/23 12:51:19;;;;;;;10.75;6.75;;;;;;;;;;4987290;28;20046;-46
2023/05/23 12:53:44;;;;;;;8.05;6.60;;;;;;;;;;4988769;28;20093;-44
2023/05/23 12:56:09;;;;;;;8.32;6.50;;;;;;;;;;4982337;28;20117;-45
2023/05/23 12:58:35;;;;;;;14.57;6.63;;;;;;;;;;4983005;28;20491;-41
2023/05/23 13:01:01;;;;;;;12.98;7.45;;;;;;;;;;4987362;28;20141;-42
2023/05/23 13:03:29;;;;;;;13.90;8.02;;;;;;;;;;4988513;28;20031;-47
2023/05/23 13:05:56;;;;;;;14.95;8.63;;;;;;;;;;4985101;28;20093;-44
2023/05/23 13:08:25;;;;;;;13.52;8.25;;;;;;;;;;4987535;28;20031;-42
2023/05/23 13:10:52;;;;;;;8.77;7.22;;;;;;;;;;4986886;28;20439;-41
2023/05/23 13:13:18;;;;;;;14.05;8.15;;;;;;;;;;4982334;28;20042;-41
2023/05/23 13:15:44;;;;;;;13.55;7.78;;;;;;;;;;4986468;28;20419;-42
2023/05/23 13:18:10;;;;;;;14.23;8.45;;;;;;;;;;4986360;28;20066;-41
2023/05/23 13:20:36;;;;;;;15.82;8.30;;;;;;;;;;4984346;28;20114;-41
2023/05/23 13:23:02;;;;;;;12.13;8.18;;;;;;;;;;4983629;28;20053;-41
2023/05/23 13:25:27;;;;;;;12.98;7.85;;;;;;;;;;4984843;28;20526;-41
2023/05/23 13:27:53;;;;;;;10.23;7.63;;;;;;;;;;4985165;28;20065;-42
2023/05/23 13:30:23;;;;;;;14.85;8.20;;;;;;;;;;4982264;28;20471;-43
2023/05/23 13:32:49;;;;;;;9.27;7.63;;;;;;;;;;4985923;28;20134;-43
2023/05/23 13:35:14;;;;;;;11.63;8.10;;;;;;;;;;4989407;28;20027;-44
2023/05/23 13:37:40;;;;;;;11.18;8.65;;;;;;;;;;4984514;28;20567;-41
2023/05/23 13:40:06;;;;;;;14.07;8.50;;;;;;;;;;4986310;28;20039;-43
2023/05/23 13:42:32;;;;;;;12.63;8.75;;;;;;;;;;4985731;28;20049;-46
2023/05/23 13:44:57;;;;;;;12.68;8.88;;;;;;;;;;4985813;28;20038;-47
2023/05/23 13:47:22;;;;;;;10.10;9.13;;;;;;;;;;4985507;28;20065;-46
2023/05/23 13:49:49;;;;;;;13.27;9.82;;;;;;;;;;4984666;28;20025;-41
2023/05/23 13:52:14;;;;;;;14.93;9.60;;;;;;;;;;4981040;28;20046;-43
2023/05/23 13:54:40;;;;;;;17.60;10.15;;;;;;;;;;4986598;28;20089;-40
2023/05/23 13:57:05;;;;;;;14.73;9.73;;;;;;;;;;4985340;28;20783;-42
2023/05/23 13:59:31;;;;;;;16.20;9.80;;;;;;;;;;4983745;28;20030;-41
2023/05/23 14:01:56;;;;;;;13.73;9.77;;;;;;;;;;4987065;28;20046;-42
2023/05/23 14:04:22;;;;;;;11.27;9.93;;;;;;;;;;4989094;28;20058;-42
2023/05/23 14:06:48;;;;;;;11.18;9.57;;;;;;;;;;4982176;28;20069;-42
2023/05/23 14:09:14;;;;;;;13.80;9.68;;;;;;;;;;4983146;28;20030;-43
2023/05/23 14:11:39;;;;;;;14.00;9.90;;;;;;;;;;4986425;28;20108;-44
2023/05/23 14:14:04;;;;;;;12.93;9.82;;;;;;;;;;4986228;28;20030;-43
2023/05/23 14:16:30;;;;;;;13.02;10.05;;;;;;;;;;4984892;28;20046;-44
2023/05/23 14:18:56;;;;;;;18.40;10.63;;;;;;;;;;4987654;28;20499;-41
2023/05/23 14:21:21;;;;;;;13.00;10.77;;;;;;;;;;4982348;28;20105;-45
2023/05/23 14:23:47;;;;;;;15.57;10.25;;;;;;;;;;4983924;28;20066;-42
2023/05/23 14:26:12;;;;;;;19.13;10.18;;;;;;;;;;4985370;28;20141;-48
2023/05/23 14:28:37;;;;;;;14.63;9.90;;;;;;;;;;4984785;28;22815;-42
2023/05/23 14:31:03;;;;;;;16.13;10.07;;;;;;;;;;4986598;28;20406;-43
2023/05/23 14:33:28;;;;;;;15.05;9.80;;;;;;;;;;4984297;28;20026;-41
2023/05/23 14:35:54;;;;;;;17.08;9.50;;;;;;;;;;4984128;28;20046;-41
2023/05/23 14:38:19;;;;;;;12.80;9.60;;;;;;;;;;4984428;28;20109;-41